Time;durP1;ratioP1;P1;durP2;ratioP2;P2;SDS_P1;SDS_P2;PMS_P1;PMS_P2;Temp;Humidity;BMP_temperature;BMP_pressure;BME280_temperature;BME280_humidity;BME280_pressure;Samples;Min_cycle;Max_cycle;Signal;HPM_P1;HPM_P2
2023/02/24 00:01:44;;;;;;;;;;;9.90;99.90;;;;;;6095006;23;19973;-76
2023/02/24 00:04:12;;;;;;;;;;;9.90;99.90;;;;;;6069838;23;19929;-76
2023/02/24 00:06:40;;;;;;;;;;;9.90;99.90;;;;;;6095317;23;19933;-76
2023/02/24 00:09:11;;;;;;;;;;;9.90;99.90;;;;;;6094443;23;19922;-76
2023/02/24 00:11:39;;;;;;;;;;;9.90;99.90;;;;;;6069842;23;19957;-78
2023/02/24 00:14:07;;;;;;;;;;;9.90;99.90;;;;;;6069436;23;19922;-76
2023/02/24 00:16:36;;;;;;;;;;;9.80;99.90;;;;;;6070042;23;20350;-77
2023/02/24 00:19:06;;;;;;;;;;;9.80;99.90;;;;;;6069400;23;19921;-76
2023/02/24 00:21:33;;;;;;;;;;;9.70;99.90;;;;;;6070138;23;19921;-76
2023/02/24 00:24:00;;;;;;;;;;;9.70;99.90;;;;;;6068901;23;19925;-76
2023/02/24 00:26:28;;;;;;;;;;;9.70;99.90;;;;;;6094954;23;19925;-76
2023/02/24 00:28:58;;;;;;;;;;;9.60;99.90;;;;;;6094476;23;19922;-76
2023/02/24 00:31:29;;;;;;;;;;;9.50;99.90;;;;;;6095202;23;20254;-78
2023/02/24 00:33:56;;;;;;;;;;;9.40;99.90;;;;;;6068759;23;19922;-77
2023/02/24 00:36:24;;;;;;;;;;;9.30;99.90;;;;;;6069910;23;19922;-77
2023/02/24 00:38:54;;;;;;;;;;;9.40;99.90;;;;;;6069716;23;19993;-77
2023/02/24 00:41:24;;;;;;;;;;;9.40;99.90;;;;;;6069023;23;19925;-76
2023/02/24 00:43:50;;;;;;;;;;;9.40;99.90;;;;;;6095053;23;19953;-77
2023/02/24 00:46:19;;;;;;;;;;;9.40;99.90;;;;;;6094147;23;19992;-77
2023/02/24 00:48:47;;;;;;;;;;;9.40;99.90;;;;;;6069981;23;19976;-77
2023/02/24 00:51:15;;;;;;;;;;;9.40;99.90;;;;;;6068938;23;19980;-76
2023/02/24 00:53:43;;;;;;;;;;;9.40;99.90;;;;;;6094767;23;20435;-77
2023/02/24 00:56:15;;;;;;;;;;;9.40;99.90;;;;;;6069313;23;19936;-77
2023/02/24 00:58:43;;;;;;;;;;;9.40;99.90;;;;;;6069371;23;19949;-77
2023/02/24 01:01:17;;;;;;;;;;;9.40;99.90;;;;;;6093858;23;19928;-78
2023/02/24 01:03:47;;;;;;;;;;;9.40;99.90;;;;;;6094458;23;19921;-77
2023/02/24 01:06:16;;;;;;;;;;;9.50;99.90;;;;;;6068707;23;19925;-78
2023/02/24 01:08:46;;;;;;;;;;;9.50;99.90;;;;;;6094928;23;19945;-77
2023/02/24 01:13:59;;;;;;;;;;;9.50;99.90;;;;;;6094043;23;19925;-77
2023/02/24 01:16:27;;;;;;;;;;;9.50;99.90;;;;;;6068356;23;19976;-77
2023/02/24 01:18:54;;;;;;;;;;;9.50;99.90;;;;;;6094544;23;19992;-77
2023/02/24 01:21:22;;;;;;;;;;;9.50;99.90;;;;;;6068069;23;19921;-78
2023/02/24 01:23:49;;;;;;;;;;;9.50;99.90;;;;;;6070016;23;20114;-77
2023/02/24 01:26:17;;;;;;;;;;;9.50;99.90;;;;;;6068022;23;19956;-77
2023/02/24 01:28:47;;;;;;;;;;;9.50;99.90;;;;;;6095022;23;19922;-77
2023/02/24 01:31:19;;;;;;;;;;;9.50;99.90;;;;;;6068465;23;19953;-76
2023/02/24 01:33:46;;;;;;;;;;;9.50;99.90;;;;;;6094508;23;19921;-77
2023/02/24 01:36:16;;;;;;;;;;;9.50;99.90;;;;;;6093581;23;19921;-77
2023/02/24 01:38:43;;;;;;;;;;;9.50;99.90;;;;;;6094576;23;19921;-77
2023/02/24 01:41:15;;;;;;;;;;;9.40;99.90;;;;;;6093623;23;19925;-77
2023/02/24 01:44:00;;;;;;;;;;;9.40;99.90;;;;;;6069487;23;19967;-77
2023/02/24 01:46:29;;;;;;;;;;;9.40;99.90;;;;;;6068900;23;19921;-77
2023/02/24 01:48:57;;;;;;;;;;;9.30;99.90;;;;;;6068540;23;20324;-77
2023/02/24 01:51:28;;;;;;;;;;;9.30;99.90;;;;;;6093607;23;20254;-76
2023/02/24 01:53:54;;;;;;;;;;;9.30;99.90;;;;;;6066466;23;19929;-77
2023/02/24 01:56:21;;;;;;;;;;;9.30;99.90;;;;;;6068063;23;19926;-77
2023/02/24 01:58:48;;;;;;;;;;;9.30;99.90;;;;;;6068567;23;19921;-77
2023/02/24 02:01:16;;;;;;;;;;;9.30;99.90;;;;;;6092821;23;19956;-79
2023/02/24 03:28:58;;;;;;;;;;;9.00;99.90;;;;;;6102359;23;19925;-72
2023/02/24 03:31:27;;;;;;;;;;;9.00;99.90;;;;;;6124876;23;20289;-73
2023/02/24 03:34:00;;;;;;;;;;;9.00;99.90;;;;;;6124504;23;19929;-72
2023/02/24 03:36:27;;;;;;;;;;;9.00;99.90;;;;;;6099052;23;19928;-73
2023/02/24 03:38:57;;;;;;;;;;;9.00;99.90;;;;;;6124057;23;19932;-77
2023/02/24 03:41:29;;;;;;;;;;;9.00;99.90;;;;;;6125564;23;20253;-77
2023/02/24 03:43:56;;;;;;;;;;;9.00;99.90;;;;;;6098951;23;19971;-77
2023/02/24 03:46:23;;;;;;;;;;;9.00;99.90;;;;;;6099760;23;19976;-77
2023/02/24 03:48:54;;;;;;;;;;;9.10;99.90;;;;;;6124191;23;19921;-77
2023/02/24 03:51:25;;;;;;;;;;;9.00;99.90;;;;;;6099768;23;20400;-76
2023/02/24 03:53:59;;;;;;;;;;;9.10;99.90;;;;;;6098796;23;21887;-77
2023/02/24 03:56:25;;;;;;;;;;;9.10;99.90;;;;;;6125107;23;19947;-77
2023/02/24 03:58:58;;;;;;;;;;;9.00;99.90;;;;;;6124045;23;20000;-77
2023/02/24 04:01:33;;;;;;;;;;;9.00;99.90;;;;;;6124864;23;20401;-76
2023/02/24 04:04:03;;;;;;;;;;;9.00;99.90;;;;;;6111288;23;19973;-77
2023/02/24 04:06:32;;;;;;;;;;;9.00;99.90;;;;;;6095464;23;19921;-76
2023/02/24 04:09:12;;;;;;;;;;;9.00;99.90;;;;;;6095143;23;19944;-77
2023/02/24 04:11:44;;;;;;;;;;;9.00;99.90;;;;;;6094802;23;19992;-77
2023/02/24 04:14:17;;;;;;;;;;;9.00;99.90;;;;;;6070609;23;19921;-78
2023/02/24 04:16:53;;;;;;;;;;;8.90;99.90;;;;;;6069582;23;19955;-77
2023/02/24 04:19:23;;;;;;;;;;;8.90;99.90;;;;;;6095964;23;20320;-77
2023/02/24 04:21:50;;;;;;;;;;;8.90;99.90;;;;;;6094884;23;19952;-77
2023/02/24 04:24:17;;;;;;;;;;;8.90;99.90;;;;;;6070978;23;19960;-77
2023/02/24 04:26:45;;;;;;;;;;;8.90;99.90;;;;;;6069921;23;19921;-77
2023/02/24 04:29:19;;;;;;;;;;;8.90;99.90;;;;;;6095193;23;19925;-77
2023/02/24 04:31:47;;;;;;;;;;;8.80;99.90;;;;;;6069729;23;19921;-77
2023/02/24 04:34:18;;;;;;;;;;;8.90;99.90;;;;;;6095442;23;20290;-77
2023/02/24 04:36:49;;;;;;;;;;;8.90;99.90;;;;;;6069659;23;19925;-78
2023/02/24 04:39:17;;;;;;;;;;;8.90;99.90;;;;;;6095265;23;19922;-77
2023/02/24 04:41:48;;;;;;;;;;;8.90;99.90;;;;;;6094548;23;19921;-77
2023/02/24 04:44:16;;;;;;;;;;;8.90;99.90;;;;;;6070412;23;19921;-77
2023/02/24 04:46:44;;;;;;;;;;;8.90;99.90;;;;;;6094689;23;19955;-77
2023/02/24 04:49:11;;;;;;;;;;;8.90;99.90;;;;;;6095143;23;20419;-77
2023/02/24 04:51:41;;;;;;;;;;;9.00;99.90;;;;;;6070640;23;19928;-77
2023/02/24 04:54:09;;;;;;;;;;;8.90;99.90;;;;;;6069604;23;20290;-77
2023/02/24 04:56:35;;;;;;;;;;;8.90;99.90;;;;;;6095597;23;19921;-76
2023/02/24 04:59:02;;;;;;;;;;;8.90;99.90;;;;;;6069436;23;19921;-77
2023/02/24 05:01:30;;;;;;;;;;;8.90;99.90;;;;;;6070899;23;19953;-77
2023/02/24 05:03:58;;;;;;;;;;;9.00;99.90;;;;;;6094318;23;20362;-77
2023/02/24 05:06:25;;;;;;;;;;;9.00;99.90;;;;;;6095529;23;20003;-77
2023/02/24 05:08:52;;;;;;;;;;;8.90;99.90;;;;;;6094088;23;19995;-77
2023/02/24 05:11:19;;;;;;;;;;;9.00;99.90;;;;;;6095104;23;20345;-77
2023/02/24 05:13:46;;;;;;;;;;;8.90;99.90;;;;;;6094594;23;19943;-76
2023/02/24 05:16:14;;;;;;;;;;;9.00;99.90;;;;;;6095267;23;19921;-77
2023/02/24 05:18:41;;;;;;;;;;;8.90;99.90;;;;;;6070367;23;19969;-78
2023/02/24 05:23:57;;;;;;;;;;;8.90;99.90;;;;;;6094507;23;20334;-77
2023/02/24 05:26:25;;;;;;;;;;;8.90;99.90;;;;;;6069569;23;19977;-77
2023/02/24 05:28:55;;;;;;;;;;;8.90;99.90;;;;;;6069163;23;20346;-77
2023/02/24 05:31:24;;;;;;;;;;;8.90;99.90;;;;;;6095345;23;19927;-77
2023/02/24 05:33:58;;;;;;;;;;;8.90;99.90;;;;;;6093472;23;19921;-77
2023/02/24 05:36:26;;;;;;;;;;;8.90;99.90;;;;;;6095076;23;20378;-77
2023/02/24 05:38:56;;;;;;;;;;;8.80;99.90;;;;;;6093781;23;20000;-76
2023/02/24 05:41:31;;;;;;;;;;;8.80;99.90;;;;;;6070256;23;20367;-76
2023/02/24 05:44:01;;;;;;;;;;;8.70;99.90;;;;;;6093652;23;19925;-77
2023/02/24 05:46:31;;;;;;;;;;;8.70;99.90;;;;;;6094733;23;19921;-77
2023/02/24 05:48:59;;;;;;;;;;;8.70;99.90;;;;;;6069061;23;19922;-77
2023/02/24 05:51:34;;;;;;;;;;;8.70;99.90;;;;;;6069950;23;19921;-77
2023/02/24 05:54:10;;;;;;;;;;;8.60;99.90;;;;;;6093723;23;19925;-77
2023/02/24 05:56:38;;;;;;;;;;;8.60;99.90;;;;;;6094908;23;19921;-77
2023/02/24 05:59:07;;;;;;;;;;;8.60;99.90;;;;;;6069219;23;19922;-77
2023/02/24 06:01:35;;;;;;;;;;;8.60;99.90;;;;;;6094668;23;20008;-77
2023/02/24 06:04:06;;;;;;;;;;;8.70;99.90;;;;;;6068555;23;19922;-77
2023/02/24 06:06:40;;;;;;;;;;;8.70;99.90;;;;;;6094812;23;19944;-77
2023/02/24 06:09:09;;;;;;;;;;;8.70;99.90;;;;;;6068821;23;19952;-77
2023/02/24 06:11:37;;;;;;;;;;;8.70;99.90;;;;;;6095088;23;19921;-77
2023/02/24 06:14:07;;;;;;;;;;;8.70;99.90;;;;;;6093798;23;19925;-77
2023/02/24 06:16:34;;;;;;;;;;;8.70;99.90;;;;;;6094491;23;19929;-77
2023/02/24 06:19:01;;;;;;;;;;;8.70;99.90;;;;;;6093911;23;19921;-77
2023/02/24 06:21:28;;;;;;;;;;;8.70;99.90;;;;;;6069352;23;20302;-77
2023/02/24 06:23:56;;;;;;;;;;;8.70;99.90;;;;;;6094890;23;19949;-77
2023/02/24 06:26:23;;;;;;;;;;;8.70;99.90;;;;;;6094372;23;19992;-77
2023/02/24 06:28:53;;;;;;;;;;;8.70;99.90;;;;;;6094908;23;19921;-77
2023/02/24 06:31:20;;;;;;;;;;;8.70;99.90;;;;;;6093975;23;19922;-78
2023/02/24 06:33:47;;;;;;;;;;;8.70;99.90;;;;;;6070267;23;19933;-79
2023/02/24 06:36:15;;;;;;;;;;;8.60;99.90;;;;;;6068722;23;19925;-78
2023/02/24 06:38:41;;;;;;;;;;;8.60;99.90;;;;;;6071465;23;19949;-78
2023/02/24 06:41:11;;;;;;;;;;;8.60;99.90;;;;;;6070543;23;20405;-77
2023/02/24 06:43:43;;;;;;;;;;;8.60;99.90;;;;;;6071802;23;19950;-77
2023/02/24 06:46:14;;;;;;;;;;;8.60;99.90;;;;;;6095295;23;19964;-77
2023/02/24 06:48:41;;;;;;;;;;;8.50;99.90;;;;;;6095643;23;19922;-78
2023/02/24 06:51:09;;;;;;;;;;;8.60;99.90;;;;;;6069895;23;20285;-78
2023/02/24 06:53:42;;;;;;;;;;;8.60;99.90;;;;;;6070067;23;20261;-78
2023/02/24 06:56:18;;;;;;;;;;;8.60;99.90;;;;;;6091945;23;19925;-78
2023/02/24 06:58:54;;;;;;;;;;;8.60;99.90;;;;;;6095722;23;19996;-78
2023/02/24 07:01:24;;;;;;;;;;;8.70;99.90;;;;;;6105346;23;20259;-68
2023/02/24 07:06:33;;;;;;;;;;;8.70;99.90;;;;;;6123349;23;19951;-68
2023/02/24 11:51:45;;;;;;;;;;;13.10;99.90;;;;;;6050951;23;20618;31
2023/02/24 11:54:13;;;;;;;;;;;13.20;99.90;;;;;;6026206;23;19946;-74
2023/02/24 11:56:54;;;;;;;;;;;13.10;99.90;;;;;;6008980;23;19950;-75
2023/02/24 11:59:23;;;;;;;;;;;12.80;99.90;;;;;;6008852;23;19945;-74
2023/02/24 12:01:53;;;;;;;;;;;12.60;99.90;;;;;;6007533;23;19929;-74
2023/02/24 12:04:23;;;;;;;;;;;12.50;99.90;;;;;;5984549;23;19923;-74
2023/02/24 12:07:00;;;;;;;;;;;12.50;99.90;;;;;;5978078;24;19957;-74
2023/02/24 12:09:30;;;;;;;;;;;12.50;99.90;;;;;;5978658;23;19923;-75
2023/02/24 12:12:00;;;;;;;;;;;12.50;99.90;;;;;;6002315;23;19923;-73
2023/02/24 12:14:27;;;;;;;;;;;12.70;99.90;;;;;;5980155;23;20356;-74
2023/02/24 12:17:16;;;;;;;;;;;12.80;99.90;;;;;;5980372;23;20265;-73
2023/02/24 12:19:56;;;;;;;;;;;12.90;99.90;;;;;;6001985;23;19926;-73
2023/02/24 12:22:25;;;;;;;;;;;12.80;99.90;;;;;;5978667;23;20302;-73
2023/02/24 12:24:53;;;;;;;;;;;12.90;99.90;;;;;;5980535;23;19946;-74
2023/02/24 12:27:58;;;;;;;;;;;13.00;99.10;;;;;;5979606;23;19923;-73
2023/02/24 12:30:34;;;;;;;;;;;13.00;99.40;;;;;;5949624;23;19946;-73
2023/02/24 12:33:17;;;;;;;;;;;13.10;99.90;;;;;;5950113;24;19930;-73
2023/02/24 12:36:01;;;;;;;;;;;13.10;99.20;;;;;;5969144;23;19927;-74
2023/02/24 12:38:31;;;;;;;;;;;12.90;99.90;;;;;;5977886;23;20410;-73
2023/02/24 12:41:17;;;;;;;;;;;13.00;99.60;;;;;;5981165;23;20273;-75
2023/02/24 12:43:53;;;;;;;;;;;12.90;99.90;;;;;;5978362;23;19978;-74
2023/02/24 12:46:25;;;;;;;;;;;13.00;98.30;;;;;;5956364;23;19990;-73
2023/02/24 12:48:55;;;;;;;;;;;13.00;99.00;;;;;;5956701;23;19948;-74
2023/02/24 12:51:28;;;;;;;;;;;12.90;98.40;;;;;;5979347;24;19993;-74
2023/02/24 12:54:02;;;;;;;;;;;12.70;99.70;;;;;;5999228;23;19923;-74
2023/02/24 12:56:29;;;;;;;;;;;12.60;99.90;;;;;;5980715;23;19934;-72
2023/02/24 12:58:58;;;;;;;;;;;12.60;98.60;;;;;;6002541;23;19952;-72
2023/02/24 13:01:53;;;;;;;;;;;12.50;99.00;;;;;;5981496;23;19927;-74
2023/02/24 13:04:38;;;;;;;;;;;12.60;99.90;;;;;;5975564;23;19926;-74
2023/02/24 13:07:08;;;;;;;;;;;12.60;99.90;;;;;;6002295;23;19954;-74
2023/02/24 13:09:54;;;;;;;;;;;12.70;99.90;;;;;;6003217;23;19953;-74
2023/02/24 13:12:32;;;;;;;;;;;12.70;99.90;;;;;;5979261;23;19923;-74
2023/02/24 13:14:59;;;;;;;;;;;12.60;99.90;;;;;;5978400;23;19927;-73
2023/02/24 13:17:26;;;;;;;;;;;12.80;99.90;;;;;;5979541;24;19957;-73
2023/02/24 13:19:54;;;;;;;;;;;12.80;99.90;;;;;;5979098;24;20269;-74
2023/02/24 13:22:26;;;;;;;;;;;13.00;99.90;;;;;;5978464;23;20334;-74
2023/02/24 13:24:52;;;;;;;;;;;12.80;99.90;;;;;;5981014;23;19979;-74
2023/02/24 13:27:24;;;;;;;;;;;12.90;99.90;;;;;;6001577;23;19930;-74
2023/02/24 13:29:52;;;;;;;;;;;13.00;99.90;;;;;;5980975;23;19974;-74
2023/02/24 13:32:39;;;;;;;;;;;12.80;99.90;;;;;;5979945;23;19927;-74
2023/02/24 13:35:15;;;;;;;;;;;12.60;99.90;;;;;;5978709;23;19927;-74
2023/02/24 13:37:43;;;;;;;;;;;12.80;99.90;;;;;;5980778;23;19923;-74
2023/02/24 13:40:21;;;;;;;;;;;13.00;99.90;;;;;;5978567;23;19977;-74
2023/02/24 13:42:59;;;;;;;;;;;13.30;99.90;;;;;;6000696;23;20380;-74
2023/02/24 13:45:31;;;;;;;;;;;13.60;96.80;;;;;;5979347;23;20023;-74
2023/02/24 13:48:01;;;;;;;;;;;13.70;93.50;;;;;;5978407;24;19923;-74
2023/02/24 13:50:35;;;;;;;;;;;13.80;93.10;;;;;;6000826;23;19946;-74
2023/02/24 13:53:05;;;;;;;;;;;13.80;91.80;;;;;;5978612;24;19927;-74
2023/02/24 13:55:51;;;;;;;;;;;13.80;90.20;;;;;;6000634;23;19954;-75
2023/02/24 13:58:37;;;;;;;;;;;13.80;91.90;;;;;;5978781;23;19922;-73
2023/02/24 14:01:04;;;;;;;;;;;13.60;92.40;;;;;;5975567;23;19982;-74
2023/02/24 14:03:32;;;;;;;;;;;13.50;93.60;;;;;;6000051;23;19929;-74
2023/02/24 14:06:00;;;;;;;;;;;13.50;92.20;;;;;;5979949;23;20301;-74
2023/02/24 14:08:35;;;;;;;;;;;13.50;93.20;;;;;;5979062;23;19922;-74
2023/02/24 14:11:02;;;;;;;;;;;13.40;94.40;;;;;;5978497;23;19956;-74
2023/02/24 14:13:32;;;;;;;;;;;13.30;95.40;;;;;;5977794;23;20011;-74
2023/02/24 14:16:03;;;;;;;;;;;13.20;94.10;;;;;;5980097;23;19947;-74
2023/02/24 14:18:30;;;;;;;;;;;13.20;95.00;;;;;;5979054;23;19982;-74
2023/02/24 14:20:57;;;;;;;;;;;13.10;95.00;;;;;;5979948;23;19923;-74
2023/02/24 14:23:28;;;;;;;;;;;13.20;95.70;;;;;;5976180;23;20258;-74
2023/02/24 14:25:57;;;;;;;;;;;13.00;95.80;;;;;;5979241;24;20265;-74
2023/02/24 14:28:27;;;;;;;;;;;13.00;97.20;;;;;;5977893;23;19926;-74
2023/02/24 14:30:57;;;;;;;;;;;13.00;97.00;;;;;;5980365;23;20261;-74
2023/02/24 14:33:31;;;;;;;;;;;12.80;95.50;;;;;;5977527;23;19931;-75
2023/02/24 14:35:59;;;;;;;;;;;12.80;96.80;;;;;;5976089;24;19927;-74
2023/02/24 14:38:29;;;;;;;;;;;12.90;96.90;;;;;;5976555;23;19927;-73
2023/02/24 14:40:56;;;;;;;;;;;13.00;96.70;;;;;;5978096;23;20005;-74
2023/02/24 14:43:23;;;;;;;;;;;13.00;97.40;;;;;;5977241;23;19922;-73
2023/02/24 14:45:51;;;;;;;;;;;13.00;96.30;;;;;;5977175;24;20006;-73
2023/02/24 14:48:28;;;;;;;;;;;13.10;96.40;;;;;;5976191;23;19923;-73
2023/02/24 14:51:06;;;;;;;;;;;13.00;96.40;;;;;;5976440;24;19957;-73
2023/02/24 14:53:34;;;;;;;;;;;12.80;96.20;;;;;;5977212;23;20112;-76
2023/02/24 14:56:01;;;;;;;;;;;12.70;97.30;;;;;;5979680;23;20023;-73
2023/02/24 14:58:38;;;;;;;;;;;12.80;96.80;;;;;;5979748;23;19923;-74
2023/02/24 15:01:11;;;;;;;;;;;12.90;97.00;;;;;;5980037;24;20040;-73
2023/02/24 15:03:43;;;;;;;;;;;12.90;95.80;;;;;;5977686;24;20256;-74
2023/02/24 15:06:23;;;;;;;;;;;12.80;97.50;;;;;;5957093;24;19974;-73
2023/02/24 15:08:59;;;;;;;;;;;12.80;98.10;;;;;;5979329;23;20961;-73
2023/02/24 15:11:28;;;;;;;;;;;12.70;98.90;;;;;;5979376;23;19963;-76
2023/02/24 15:14:06;;;;;;;;;;;12.70;99.90;;;;;;5979465;23;19930;-73
2023/02/24 15:16:37;;;;;;;;;;;12.60;99.70;;;;;;5980583;23;19948;-74
2023/02/24 15:19:20;;;;;;;;;;;12.50;99.10;;;;;;5980101;24;19958;-74
2023/02/24 15:21:47;;;;;;;;;;;12.60;99.90;;;;;;5978585;23;19991;-74
2023/02/24 15:24:18;;;;;;;;;;;12.60;99.60;;;;;;5979581;24;20246;-74
2023/02/24 15:26:59;;;;;;;;;;;12.50;99.90;;;;;;5980480;23;19979;-73
2023/02/24 15:29:27;;;;;;;;;;;12.50;99.90;;;;;;5981430;23;20005;-74
2023/02/24 15:31:55;;;;;;;;;;;12.40;99.40;;;;;;5979459;24;19983;-74
2023/02/24 15:34:24;;;;;;;;;;;12.40;99.90;;;;;;5980050;24;19922;-73
2023/02/24 15:36:53;;;;;;;;;;;12.40;99.90;;;;;;5980824;23;20241;-73
2023/02/24 15:39:22;;;;;;;;;;;12.40;99.90;;;;;;5980962;23;20012;-74
2023/02/24 15:41:50;;;;;;;;;;;12.40;99.90;;;;;;5980552;23;20265;-73
2023/02/24 15:44:27;;;;;;;;;;;12.40;99.90;;;;;;5979156;24;20321;-73
2023/02/24 15:46:54;;;;;;;;;;;12.40;99.90;;;;;;5979167;23;20243;-74
2023/02/24 15:49:21;;;;;;;;;;;12.50;99.90;;;;;;5979404;24;20307;-73
2023/02/24 15:51:49;;;;;;;;;;;12.50;99.90;;;;;;5978820;23;19977;-73
2023/02/24 15:54:24;;;;;;;;;;;12.50;99.90;;;;;;5980797;23;20002;-74
2023/02/24 15:56:50;;;;;;;;;;;12.50;99.90;;;;;;5979003;23;19930;-74
2023/02/24 15:59:20;;;;;;;;;;;12.50;99.90;;;;;;5980774;23;19975;-73
2023/02/24 16:01:46;;;;;;;;;;;12.40;99.90;;;;;;5980268;23;20302;-74
2023/02/24 16:04:13;;;;;;;;;;;12.30;99.90;;;;;;5979161;24;19922;-74
2023/02/24 16:06:42;;;;;;;;;;;12.40;99.90;;;;;;5978427;23;20010;-74
2023/02/24 16:09:13;;;;;;;;;;;12.30;99.90;;;;;;5980776;23;19927;-73
2023/02/24 16:11:42;;;;;;;;;;;12.30;99.90;;;;;;5979458;23;19930;-73
2023/02/24 16:14:12;;;;;;;;;;;12.20;99.90;;;;;;5980725;23;20412;-74
2023/02/24 16:16:39;;;;;;;;;;;12.20;99.90;;;;;;5979897;23;20265;-73
2023/02/24 16:19:09;;;;;;;;;;;12.10;99.90;;;;;;5980101;24;20294;-74
2023/02/24 16:21:36;;;;;;;;;;;12.10;99.90;;;;;;5979408;23;20373;-75
2023/02/24 16:24:02;;;;;;;;;;;12.00;99.90;;;;;;5981436;23;19975;-74
2023/02/24 16:26:32;;;;;;;;;;;12.00;99.90;;;;;;5981549;23;19922;-73
2023/02/24 16:28:59;;;;;;;;;;;12.00;99.90;;;;;;5999911;23;19961;-75
2023/02/24 16:31:26;;;;;;;;;;;12.00;99.90;;;;;;5978131;24;19950;-75
2023/02/24 16:33:53;;;;;;;;;;;12.00;99.90;;;;;;5980704;23;19923;-74
2023/02/24 16:36:22;;;;;;;;;;;12.00;99.90;;;;;;5978982;24;19922;-73
2023/02/24 16:38:50;;;;;;;;;;;11.90;99.90;;;;;;5979118;23;20406;-74
2023/02/24 16:41:17;;;;;;;;;;;11.90;99.90;;;;;;5981421;23;19922;-73
2023/02/24 16:43:44;;;;;;;;;;;11.90;99.90;;;;;;5978030;23;20261;-73
2023/02/24 16:46:12;;;;;;;;;;;11.90;99.90;;;;;;5980288;23;19971;-76
2023/02/24 16:48:40;;;;;;;;;;;11.80;99.90;;;;;;5978098;23;19926;-73
2023/02/24 16:51:07;;;;;;;;;;;11.90;99.90;;;;;;5979514;24;19997;-74
2023/02/24 16:53:34;;;;;;;;;;;11.80;99.90;;;;;;5980485;23;19926;-74
2023/02/24 16:56:00;;;;;;;;;;;11.90;99.90;;;;;;5978236;23;20338;-75
2023/02/24 16:58:27;;;;;;;;;;;11.90;99.90;;;;;;5978105;24;19957;-74
2023/02/24 17:00:57;;;;;;;;;;;11.90;99.90;;;;;;5978520;23;20385;-74
2023/02/24 17:03:37;;;;;;;;;;;11.90;99.90;;;;;;5981061;23;19931;-74
2023/02/24 17:06:05;;;;;;;;;;;11.80;99.90;;;;;;5978795;23;19942;-75
2023/02/24 17:08:32;;;;;;;;;;;11.80;99.90;;;;;;5981095;23;19922;-73
2023/02/24 17:10:59;;;;;;;;;;;11.80;99.90;;;;;;5978508;23;19942;-74
2023/02/24 17:13:26;;;;;;;;;;;11.70;99.90;;;;;;5978726;23;19950;-73
2023/02/24 17:15:54;;;;;;;;;;;11.70;99.90;;;;;;5978035;23;19930;-73
2023/02/24 17:18:21;;;;;;;;;;;11.70;99.90;;;;;;5978768;24;19922;-73
2023/02/24 17:20:48;;;;;;;;;;;11.60;99.90;;;;;;5977353;23;20317;-74
2023/02/24 17:23:15;;;;;;;;;;;11.60;99.90;;;;;;5978285;24;19927;-73
2023/02/24 17:25:41;;;;;;;;;;;11.60;99.90;;;;;;5978891;23;19946;-74
2023/02/24 17:28:09;;;;;;;;;;;11.60;99.90;;;;;;5978898;23;19990;-73
2023/02/24 17:30:37;;;;;;;;;;;11.60;99.90;;;;;;5981325;23;19923;-74
2023/02/24 17:33:04;;;;;;;;;;;11.50;99.90;;;;;;5978568;23;19926;-74
2023/02/24 17:35:31;;;;;;;;;;;11.60;99.90;;;;;;5978909;24;19946;-74
2023/02/24 17:37:58;;;;;;;;;;;11.50;99.90;;;;;;5977049;23;19950;-73
2023/02/24 17:40:24;;;;;;;;;;;11.50;99.90;;;;;;5979032;24;20006;-73
2023/02/24 17:42:51;;;;;;;;;;;11.60;99.90;;;;;;5977864;23;19958;-73
2023/02/24 17:45:18;;;;;;;;;;;11.50;99.90;;;;;;5978773;24;20350;-73
2023/02/24 17:47:45;;;;;;;;;;;11.50;99.90;;;;;;5979153;23;19923;-73
2023/02/24 17:50:12;;;;;;;;;;;11.50;99.90;;;;;;5978756;24;19923;-73
2023/02/24 17:52:39;;;;;;;;;;;11.50;99.90;;;;;;5978385;24;19934;-73
2023/02/24 17:55:06;;;;;;;;;;;11.50;99.90;;;;;;5977986;23;19923;-74
2023/02/24 17:57:33;;;;;;;;;;;11.40;99.90;;;;;;5980381;23;19923;-73
2023/02/24 18:00:00;;;;;;;;;;;11.40;99.90;;;;;;5975964;23;19950;-73
2023/02/24 18:02:27;;;;;;;;;;;11.40;99.90;;;;;;5979579;23;19931;-74
2023/02/24 18:04:54;;;;;;;;;;;11.40;99.90;;;;;;5978064;23;19933;-74
2023/02/24 18:07:21;;;;;;;;;;;11.40;99.90;;;;;;5978876;24;19959;-73
2023/02/24 18:09:47;;;;;;;;;;;11.40;99.90;;;;;;5949620;23;19922;-74
2023/02/24 18:12:17;;;;;;;;;;;11.40;99.90;;;;;;5977350;24;19982;-74
2023/02/24 18:14:44;;;;;;;;;;;11.30;99.90;;;;;;5977161;23;20238;-76
2023/02/24 18:17:11;;;;;;;;;;;11.30;99.90;;;;;;5978020;24;19924;-74
2023/02/24 18:19:37;;;;;;;;;;;11.30;99.90;;;;;;5978284;24;19923;-73
2023/02/24 18:22:05;;;;;;;;;;;11.30;99.90;;;;;;5976843;23;21048;-74
2023/02/24 18:24:33;;;;;;;;;;;11.30;99.90;;;;;;5978048;24;19970;-73
2023/02/24 18:27:03;;;;;;;;;;;11.30;99.90;;;;;;5976887;23;19954;-73
2023/02/24 18:29:30;;;;;;;;;;;11.30;99.90;;;;;;5979452;23;20242;-73
2023/02/24 18:31:56;;;;;;;;;;;11.30;99.90;;;;;;5979098;23;20361;-74
2023/02/24 18:34:24;;;;;;;;;;;11.20;99.90;;;;;;5980048;24;20280;-74
2023/02/24 18:36:51;;;;;;;;;;;11.20;99.90;;;;;;5979349;23;19927;-73
2023/02/24 18:39:17;;;;;;;;;;;11.20;99.90;;;;;;5981565;23;19946;-73
2023/02/24 18:41:44;;;;;;;;;;;11.10;99.90;;;;;;5980325;24;20000;-73
2023/02/24 18:44:11;;;;;;;;;;;11.10;99.90;;;;;;5979268;23;19922;-73
2023/02/24 18:46:38;;;;;;;;;;;11.10;99.90;;;;;;5980556;24;19988;-73
2023/02/24 18:49:07;;;;;;;;;;;11.10;99.90;;;;;;5980904;23;19931;-73
2023/02/24 18:51:35;;;;;;;;;;;11.10;99.90;;;;;;5982050;23;19933;-74
2023/02/24 18:54:02;;;;;;;;;;;11.10;99.90;;;;;;5981050;23;19988;-74
2023/02/24 18:56:30;;;;;;;;;;;11.10;99.90;;;;;;5980639;23;19954;-74
2023/02/24 18:58:58;;;;;;;;;;;11.10;99.90;;;;;;5980255;23;19950;-74
2023/02/24 19:01:28;;;;;;;;;;;11.10;99.90;;;;;;5980619;24;20265;-73
2023/02/24 19:03:55;;;;;;;;;;;11.10;99.90;;;;;;5981455;23;19946;-73
2023/02/24 19:06:25;;;;;;;;;;;11.10;99.90;;;;;;5982250;23;20308;-73
2023/02/24 19:08:56;;;;;;;;;;;11.10;99.90;;;;;;5980401;23;19972;-73
2023/02/24 19:11:23;;;;;;;;;;;11.10;99.90;;;;;;5982437;23;19942;-74
2023/02/24 19:13:50;;;;;;;;;;;11.00;99.90;;;;;;5979493;23;19942;-73
2023/02/24 19:16:17;;;;;;;;;;;11.10;99.90;;;;;;5981287;24;20279;-73
2023/02/24 19:18:46;;;;;;;;;;;11.10;99.90;;;;;;5978317;24;19933;-74
2023/02/24 19:21:13;;;;;;;;;;;11.10;99.90;;;;;;5978826;23;19931;-73
2023/02/24 19:23:40;;;;;;;;;;;11.10;99.90;;;;;;5979772;23;19942;-73
2023/02/24 19:26:18;;;;;;;;;;;11.00;99.90;;;;;;5979251;23;19971;-74
2023/02/24 19:28:45;;;;;;;;;;;11.00;99.90;;;;;;5980495;24;19927;-73
2023/02/24 19:31:13;;;;;;;;;;;11.00;99.90;;;;;;5982341;23;19923;-77
2023/02/24 19:33:40;;;;;;;;;;;11.00;99.90;;;;;;5980801;24;19985;-75
2023/02/24 19:36:07;;;;;;;;;;;10.90;99.90;;;;;;5979434;23;20013;-75
2023/02/24 19:38:34;;;;;;;;;;;10.90;99.90;;;;;;5980539;24;20265;-75
2023/02/24 19:41:01;;;;;;;;;;;10.90;99.90;;;;;;5979425;23;19922;-75
2023/02/24 19:43:28;;;;;;;;;;;10.90;99.90;;;;;;5979835;24;19922;-75
2023/02/24 19:45:55;;;;;;;;;;;10.90;99.90;;;;;;5979956;23;20298;-75
2023/02/24 19:48:21;;;;;;;;;;;10.90;99.90;;;;;;5978266;24;19923;-76
2023/02/24 19:50:48;;;;;;;;;;;10.90;99.90;;;;;;5979659;23;19954;-75
2023/02/24 19:53:15;;;;;;;;;;;10.90;99.90;;;;;;5978949;23;19958;-75
2023/02/24 19:55:46;;;;;;;;;;;10.90;99.90;;;;;;5979594;24;19923;-75
2023/02/24 19:58:13;;;;;;;;;;;10.90;99.90;;;;;;5979011;23;20357;-75
2023/02/24 20:00:40;;;;;;;;;;;10.90;99.90;;;;;;5980966;23;19923;-76
2023/02/24 20:03:08;;;;;;;;;;;10.80;99.90;;;;;;5979128;23;19922;-76
2023/02/24 20:05:35;;;;;;;;;;;10.80;99.90;;;;;;5956987;24;19950;-75
2023/02/24 20:08:02;;;;;;;;;;;10.70;99.90;;;;;;5978882;23;19922;-75
2023/02/24 20:10:29;;;;;;;;;;;10.60;99.90;;;;;;5981000;23;19934;-75
2023/02/24 20:12:56;;;;;;;;;;;10.60;99.90;;;;;;5980182;24;19927;-75
2023/02/24 20:15:24;;;;;;;;;;;10.60;99.90;;;;;;5968698;23;19927;-75
2023/02/24 20:17:51;;;;;;;;;;;10.60;99.90;;;;;;5979846;24;19922;-74
2023/02/24 20:20:18;;;;;;;;;;;10.60;99.90;;;;;;5978749;23;20230;-74
2023/02/24 20:22:46;;;;;;;;;;;10.60;99.90;;;;;;5979947;24;20342;-74
2023/02/24 20:25:14;;;;;;;;;;;10.70;99.90;;;;;;5980317;23;19927;-74
2023/02/24 20:27:41;;;;;;;;;;;10.70;99.90;;;;;;5981387;23;20005;-75
2023/02/24 20:30:08;;;;;;;;;;;10.70;99.90;;;;;;5978069;23;19931;-76
2023/02/24 20:32:36;;;;;;;;;;;10.70;99.90;;;;;;5978934;24;20265;-74
2023/02/24 20:35:05;;;;;;;;;;;10.70;99.90;;;;;;5979284;23;20274;-76
2023/02/24 20:37:32;;;;;;;;;;;10.70;99.90;;;;;;5978820;23;20306;-75
2023/02/24 20:39:59;;;;;;;;;;;10.70;99.90;;;;;;5979643;24;19926;-75
2023/02/24 20:42:25;;;;;;;;;;;10.60;99.90;;;;;;5978576;23;19923;-74
2023/02/24 20:44:52;;;;;;;;;;;10.60;99.90;;;;;;5981024;23;19922;-74
2023/02/24 20:47:19;;;;;;;;;;;10.50;99.90;;;;;;5977659;23;19997;-74
2023/02/24 20:49:46;;;;;;;;;;;10.50;99.90;;;;;;5979587;24;19929;-74
2023/02/24 20:52:13;;;;;;;;;;;10.60;99.90;;;;;;5978435;23;19926;-75